createdAt,value
2023-04-29T00:00:44.180Z,98200.47
2023-04-29T00:03:10.963Z,98195.28
2023-04-29T00:05:37.937Z,98205.66
2023-04-29T00:08:04.929Z,98196.97
2023-04-29T00:10:31.623Z,98203.06
2023-04-29T00:12:58.244Z,98198.94
2023-04-29T00:15:24.845Z,98205.53
2023-04-29T00:17:51.497Z,98199.72
2023-04-29T00:20:18.202Z,98191.66
2023-04-29T00:22:45.243Z,98179.91
2023-04-29T00:25:12.400Z,98185.59
2023-04-29T00:27:39.657Z,98185.53
2023-04-29T00:30:08.388Z,98187.13
2023-04-29T00:32:35.194Z,98175.78
2023-04-29T00:35:02.424Z,98180.28
2023-04-29T00:37:29.023Z,98183.81
2023-04-29T00:39:55.602Z,98180.28
2023-04-29T00:42:22.635Z,98178.44
2023-04-29T00:44:49.256Z,98178.69
2023-04-29T00:47:15.924Z,98176.97
2023-04-29T00:49:42.635Z,98176.03
2023-04-29T00:52:11.858Z,98176.13
2023-04-29T00:54:39.253Z,98171.72
2023-04-29T00:57:06.514Z,98173.38
2023-04-29T00:59:34.602Z,98156.28
2023-04-29T01:02:02.970Z,98161.34
2023-04-29T01:04:30.673Z,98149.31
2023-04-29T01:07:18.260Z,98146.75
2023-04-29T01:09:53.840Z,98142.34
2023-04-29T01:12:32.857Z,98146.00
2023-04-29T01:15:12.708Z,98151.91
2023-04-29T01:17:56.931Z,98148.38
2023-04-29T01:20:25.558Z,98151.81
2023-04-29T01:22:52.380Z,98151.81
2023-04-29T01:25:22.249Z,98151.88
2023-04-29T01:28:13.444Z,98155.28
2023-04-29T01:30:39.986Z,98165.22
2023-04-29T01:33:34.341Z,98163.44
2023-04-29T01:36:09.589Z,98153.19
2023-04-29T01:38:53.201Z,98141.81
2023-04-29T01:41:35.944Z,98141.59
2023-04-29T01:44:07.460Z,98140.47
2023-04-29T01:46:35.447Z,98140.34
2023-04-29T01:49:04.547Z,98151.41
2023-04-29T01:51:32.322Z,98166.16
2023-04-29T01:53:59.116Z,98153.06
2023-04-29T01:56:25.843Z,98160.75
2023-04-29T01:58:52.512Z,98164.25
2023-04-29T02:01:19.192Z,98161.94
2023-04-29T02:03:46.048Z,98162.06
2023-04-29T02:06:12.872Z,98143.47
2023-04-29T02:08:39.482Z,98146.56
2023-04-29T02:11:06.735Z,98156.66
2023-04-29T02:13:33.343Z,98143.06
2023-04-29T02:16:11.197Z,98145.34
2023-04-29T02:18:38.057Z,98146.72
2023-04-29T02:21:04.768Z,98142.25
2023-04-29T02:23:31.727Z,98140.59
2023-04-29T02:25:58.408Z,98144.88
2023-04-29T02:28:25.308Z,98145.16
2023-04-29T02:30:51.994Z,98147.75
2023-04-29T02:33:18.695Z,98153.56
2023-04-29T02:35:45.259Z,98156.16
2023-04-29T02:38:12.258Z,98163.94
2023-04-29T02:40:43.335Z,98160.31
2023-04-29T02:43:09.989Z,98158.81
2023-04-29T02:45:37.218Z,98157.84
2023-04-29T02:48:04.010Z,98153.28
2023-04-29T02:50:30.678Z,98161.84
2023-04-29T02:52:57.855Z,98155.72
2023-04-29T02:55:24.556Z,98157.25
2023-04-29T02:57:51.127Z,98156.28
2023-04-29T03:00:17.757Z,98149.31
2023-04-29T03:02:44.452Z,98150.13
2023-04-29T03:05:11.649Z,98156.47
2023-04-29T03:07:38.330Z,98150.47
2023-04-29T03:10:05.823Z,98149.69
2023-04-29T03:12:32.410Z,98156.81
2023-04-29T03:14:59.008Z,98145.44
2023-04-29T03:17:25.702Z,98133.19
2023-04-29T03:19:54.607Z,98142.59
2023-04-29T03:22:22.494Z,98140.88
2023-04-29T03:24:49.169Z,98138.53
2023-04-29T03:27:16.099Z,98137.81
2023-04-29T03:29:42.699Z,98126.63
2023-04-29T03:32:09.348Z,98127.19
2023-04-29T03:34:36.048Z,98133.03
2023-04-29T03:37:02.737Z,98142.69
2023-04-29T03:39:32.494Z,98140.00
2023-04-29T03:41:59.698Z,98139.09
2023-04-29T03:44:26.857Z,98142.53
2023-04-29T03:46:53.450Z,98148.50
2023-04-29T03:49:20.014Z,98147.59
2023-04-29T03:51:46.828Z,98147.59
2023-04-29T03:54:13.835Z,98155.16
2023-04-29T03:56:41.186Z,98156.28
2023-04-29T03:59:07.796Z,98161.34
2023-04-29T04:01:37.198Z,98158.81
2023-04-29T04:04:04.162Z,98158.09
2023-04-29T04:06:31.916Z,98152.63
2023-04-29T04:08:58.582Z,98150.91
2023-04-29T04:11:25.372Z,98157.81
2023-04-29T04:13:54.917Z,98153.56
2023-04-29T04:16:21.726Z,98156.44
2023-04-29T04:18:48.373Z,98145.72
2023-04-29T04:21:14.988Z,98158.75
2023-04-29T04:23:41.860Z,98150.03
2023-04-29T04:26:08.498Z,98141.44
2023-04-29T04:28:35.140Z,98149.00
2023-04-29T04:31:02.458Z,98141.22
2023-04-29T04:33:29.285Z,98140.59
2023-04-29T04:35:55.839Z,98127.63
2023-04-29T04:38:25.457Z,98125.59
2023-04-29T04:40:52.256Z,98124.59
2023-04-29T04:43:21.353Z,98120.56
2023-04-29T04:45:48.093Z,98117.53
2023-04-29T04:48:14.863Z,98119.88
2023-04-29T04:50:41.628Z,98120.63
2023-04-29T04:53:08.375Z,98129.47
2023-04-29T04:55:34.980Z,98132.78
2023-04-29T04:58:01.609Z,98128.41
2023-04-29T05:00:28.446Z,98127.44
2023-04-29T05:02:55.224Z,98123.03
2023-04-29T05:05:21.987Z,98129.81
2023-04-29T05:07:48.637Z,98127.84
2023-04-29T05:10:15.269Z,98133.69
2023-04-29T05:12:41.855Z,98137.81
2023-04-29T05:15:08.765Z,98132.41
2023-04-29T05:17:36.561Z,98140.13
2023-04-29T05:20:03.745Z,98136.41
2023-04-29T05:22:30.733Z,98134.38
2023-04-29T05:25:02.920Z,98139.44
2023-04-29T05:27:30.142Z,98151.41
2023-04-29T05:29:57.254Z,98145.31
2023-04-29T05:32:24.152Z,98149.59
2023-04-29T05:34:52.979Z,98153.03
2023-04-29T05:37:19.573Z,98153.88
2023-04-29T05:39:46.276Z,98151.75
2023-04-29T05:42:12.882Z,98159.69
2023-04-29T05:44:40.036Z,98165.53
2023-04-29T05:47:06.669Z,98169.00
2023-04-29T05:49:33.456Z,98167.25
2023-04-29T05:52:04.264Z,98166.25
2023-04-29T05:54:31.059Z,98173.16
2023-04-29T05:56:57.799Z,98171.47
2023-04-29T05:59:24.423Z,98172.38
2023-04-29T06:01:51.196Z,98172.25
2023-04-29T06:04:18.104Z,98181.44
2023-04-29T06:06:45.034Z,98178.06
2023-04-29T06:09:23.849Z,98181.28
2023-04-29T06:11:53.548Z,98191.50
2023-04-29T06:14:20.314Z,98184.38
2023-04-29T06:16:47.450Z,98185.94
2023-04-29T06:19:14.487Z,98191.59
2023-04-29T06:21:41.111Z,98192.03
2023-04-29T06:24:07.984Z,98193.56
2023-04-29T06:26:34.588Z,98195.78
2023-04-29T06:29:01.437Z,98202.38
2023-04-29T06:31:30.573Z,98202.31
2023-04-29T06:33:57.580Z,98202.03
2023-04-29T06:36:24.253Z,98196.06
2023-04-29T06:38:50.951Z,98192.69
2023-04-29T06:41:17.584Z,98193.47
2023-04-29T06:43:45.433Z,98196.84
2023-04-29T06:46:13.476Z,98193.38
2023-04-29T06:48:40.136Z,98193.91
2023-04-29T06:51:07.152Z,98193.38
2023-04-29T06:53:33.898Z,98200.78
2023-04-29T06:56:00.688Z,98194.53
2023-04-29T06:58:27.375Z,98196.06
2023-04-29T07:00:54.021Z,98198.72
2023-04-29T07:03:20.854Z,98204.00
2023-04-29T07:05:47.907Z,98205.63
2023-04-29T07:08:14.972Z,98208.38
2023-04-29T07:10:41.826Z,98213.34
2023-04-29T07:13:08.617Z,98215.78
2023-04-29T07:15:36.468Z,98218.53
2023-04-29T07:18:06.869Z,98210.69
2023-04-29T07:20:36.522Z,98218.31
2023-04-29T07:23:03.119Z,98224.88
2023-04-29T07:25:32.069Z,98222.97
2023-04-29T07:27:59.167Z,98228.25
2023-04-29T07:30:25.925Z,98215.94
2023-04-29T07:32:55.085Z,98210.75
2023-04-29T07:35:21.747Z,98216.72
2023-04-29T07:37:48.432Z,98220.13
2023-04-29T07:40:15.018Z,98225.97
2023-04-29T07:42:41.644Z,98230.34
2023-04-29T07:45:11.132Z,98227.66
2023-04-29T07:47:37.868Z,98221.59
2023-04-29T07:50:06.847Z,98224.06
2023-04-29T07:52:34.100Z,98227.34
2023-04-29T07:55:03.573Z,98228.34
2023-04-29T07:57:30.143Z,98224.66
2023-04-29T07:59:56.801Z,98228.28
2023-04-29T08:02:23.655Z,98223.69
2023-04-29T08:04:51.871Z,98228.94
2023-04-29T08:07:18.843Z,98226.22
2023-04-29T08:09:45.659Z,98231.41
2023-04-29T08:12:12.436Z,98230.88
2023-04-29T08:14:39.271Z,98232.53
2023-04-29T08:17:06.079Z,98236.28
2023-04-29T08:19:32.984Z,98232.69
2023-04-29T08:22:01.148Z,98242.25
2023-04-29T08:24:29.352Z,98240.84
2023-04-29T08:26:56.037Z,98245.09
2023-04-29T08:29:22.760Z,98245.94
2023-04-29T08:31:50.287Z,98249.44
2023-04-29T08:34:16.921Z,98237.13
2023-04-29T08:36:43.516Z,98235.31
2023-04-29T08:39:10.519Z,98239.81
2023-04-29T08:41:37.149Z,98250.13
2023-04-29T08:44:03.771Z,98246.69
2023-04-29T08:46:31.825Z,98245.63
2023-04-29T08:48:59.706Z,98247.28
2023-04-29T08:51:26.729Z,98240.13
2023-04-29T08:53:56.545Z,98246.56
2023-04-29T08:56:23.280Z,98242.88
2023-04-29T08:58:58.976Z,98243.47
2023-04-29T09:01:29.036Z,98241.03
2023-04-29T09:04:04.914Z,98239.81
2023-04-29T09:06:33.852Z,98245.56
2023-04-29T09:09:03.091Z,98240.13
2023-04-29T09:11:31.058Z,98247.59
2023-04-29T09:14:04.346Z,98244.63
2023-04-29T09:16:31.193Z,98233.81
2023-04-29T09:18:58.019Z,98244.00
2023-04-29T09:21:27.350Z,98241.94
2023-04-29T09:23:58.150Z,98241.09
2023-04-29T09:26:25.698Z,98228.94
2023-04-29T09:29:14.020Z,98234.19
2023-04-29T09:31:42.315Z,98228.59
2023-04-29T09:34:09.652Z,98232.06
2023-04-29T09:36:50.305Z,98229.22
2023-04-29T09:39:19.040Z,98230.75
2023-04-29T09:41:55.058Z,98236.72
2023-04-29T09:44:25.045Z,98238.00
2023-04-29T09:47:05.859Z,98231.56
2023-04-29T09:49:38.840Z,98219.94
2023-04-29T09:52:08.216Z,98224.84
2023-04-29T09:54:36.608Z,98218.38
2023-04-29T09:57:06.636Z,98220.16
2023-04-29T09:59:36.295Z,98214.59
2023-04-29T10:02:12.077Z,98211.16
2023-04-29T10:04:41.725Z,98212.66
2023-04-29T10:07:09.456Z,98206.38
2023-04-29T10:09:38.236Z,98194.84
2023-04-29T10:12:07.511Z,98200.91
2023-04-29T10:14:43.284Z,98200.13
2023-04-29T10:17:47.205Z,98194.59
2023-04-29T10:20:24.014Z,98196.00
2023-04-29T10:22:53.123Z,98184.50
2023-04-29T10:25:21.398Z,98177.50
2023-04-29T10:27:49.227Z,98180.97
2023-04-29T10:30:18.010Z,98187.53
2023-04-29T10:32:51.116Z,98185.50
2023-04-29T10:35:20.387Z,98192.97
2023-04-29T10:37:51.238Z,98190.94
2023-04-29T10:40:24.826Z,98200.28
2023-04-29T10:42:52.957Z,98194.88
2023-04-29T10:45:35.529Z,98193.94
2023-04-29T10:48:02.848Z,98195.72
2023-04-29T10:50:30.537Z,98186.13
2023-04-29T10:52:58.146Z,98182.75
2023-04-29T10:55:25.767Z,98183.50
2023-04-29T10:57:57.332Z,98183.59
2023-04-29T11:00:28.663Z,98180.88
2023-04-29T11:02:56.467Z,98189.50
2023-04-29T11:05:36.883Z,98190.25
2023-04-29T11:08:29.529Z,98193.53
2023-04-29T11:11:04.084Z,98189.25
2023-04-29T11:13:32.766Z,98186.66
2023-04-29T11:16:10.793Z,98195.38
2023-04-29T11:19:11.085Z,98193.53
2023-04-29T11:21:38.046Z,98193.53
2023-04-29T11:24:06.602Z,98192.63
2023-04-29T11:26:36.789Z,98190.50
2023-04-29T11:29:05.209Z,98192.84
2023-04-29T11:31:33.022Z,98193.69
2023-04-29T11:34:00.465Z,98187.53
2023-04-29T11:36:27.692Z,98194.31
2023-04-29T11:38:54.319Z,98201.84
2023-04-29T11:41:22.536Z,98193.19
2023-04-29T11:43:59.671Z,98196.91
2023-04-29T11:46:28.308Z,98206.31
2023-04-29T11:48:54.979Z,98205.53
2023-04-29T11:51:22.703Z,98214.31
2023-04-29T11:53:52.639Z,98219.63
2023-04-29T11:56:25.542Z,98221.53
2023-04-29T11:58:57.019Z,98232.84
2023-04-29T12:01:25.335Z,98237.59
2023-04-29T12:03:52.228Z,98238.78
2023-04-29T12:06:19.047Z,98230.56
2023-04-29T12:08:48.548Z,98220.81
2023-04-29T12:11:15.233Z,98213.31
2023-04-29T12:13:42.208Z,98232.22
2023-04-29T12:16:11.157Z,98237.81
2023-04-29T12:18:39.057Z,98238.13
2023-04-29T12:21:06.739Z,98240.31
2023-04-29T12:23:36.156Z,98231.00
2023-04-29T12:26:04.545Z,98221.47
2023-04-29T12:28:31.228Z,98219.63
2023-04-29T12:30:59.359Z,98220.63
2023-04-29T12:33:29.440Z,98220.63
2023-04-29T12:35:58.010Z,98212.72
2023-04-29T12:38:27.761Z,98211.78
2023-04-29T12:41:00.214Z,98208.09
2023-04-29T12:43:30.755Z,98204.53
2023-04-29T12:46:03.272Z,98194.88
2023-04-29T12:48:33.195Z,98199.56
2023-04-29T12:51:01.900Z,98194.50
2023-04-29T12:53:32.040Z,98189.59
2023-04-29T12:55:59.052Z,98185.50
2023-04-29T12:58:30.030Z,98178.72
2023-04-29T13:00:57.629Z,98179.00
2023-04-29T13:03:24.971Z,98170.06
2023-04-29T13:05:53.936Z,98171.75
2023-04-29T13:08:25.199Z,98177.91
2023-04-29T13:10:51.898Z,98173.78
2023-04-29T13:13:18.735Z,98184.50
2023-04-29T13:15:45.426Z,98173.03
2023-04-29T13:18:12.044Z,98171.38
2023-04-29T13:20:42.373Z,98169.03
2023-04-29T13:23:10.081Z,98163.34
2023-04-29T13:25:38.267Z,98176.19
2023-04-29T13:28:08.035Z,98176.94
2023-04-29T13:30:34.962Z,98164.53
2023-04-29T13:33:09.825Z,98160.72
2023-04-29T13:35:40.437Z,98164.38
2023-04-29T13:38:08.476Z,98163.53
2023-04-29T13:40:39.372Z,98164.53
2023-04-29T13:43:09.779Z,98162.94
2023-04-29T13:45:39.767Z,98152.28
2023-04-29T13:48:26.062Z,98155.31
2023-04-29T13:53:56.995Z,98166.88
2023-04-29T13:59:30.583Z,98180.97
2023-04-29T14:03:58.962Z,98176.09
2023-04-29T14:06:25.725Z,98178.00
2023-04-29T14:08:54.773Z,98169.31
2023-04-29T14:11:21.378Z,98167.81
2023-04-29T14:13:48.039Z,98170.72
2023-04-29T14:16:14.681Z,98161.13
2023-04-29T14:18:41.425Z,98167.75
2023-04-29T14:21:08.320Z,98166.13
2023-04-29T14:23:34.939Z,98176.59
2023-04-29T14:26:22.436Z,98177.44
2023-04-29T14:28:57.514Z,98171.91
2023-04-29T14:31:28.883Z,98177.91
2023-04-29T14:33:58.784Z,98172.66
2023-04-29T14:36:29.513Z,98162.59
2023-04-29T14:38:58.731Z,98158.75
2023-04-29T14:41:25.728Z,98153.63
2023-04-29T14:43:54.653Z,98149.59
2023-04-29T14:46:22.349Z,98139.78
2023-04-29T14:48:49.580Z,98127.72
2023-04-29T14:51:16.303Z,98126.28
2023-04-29T14:53:43.100Z,98127.31
2023-04-29T14:56:09.753Z,98133.38
2023-04-29T14:58:36.430Z,98137.19
2023-04-29T15:01:03.024Z,98133.53
2023-04-29T15:03:29.789Z,98141.56
2023-04-29T15:05:59.778Z,98149.41
2023-04-29T15:08:26.466Z,98159.13
2023-04-29T15:10:53.181Z,98166.97
2023-04-29T15:13:20.117Z,98149.16
2023-04-29T15:15:46.956Z,98157.00
2023-04-29T15:18:13.783Z,98155.50
2023-04-29T15:20:40.599Z,98156.56
2023-04-29T15:23:08.610Z,98157.47
2023-04-29T15:25:36.176Z,98153.31
2023-04-29T15:28:04.932Z,98155.81
2023-04-29T15:30:32.166Z,98155.91
2023-04-29T15:32:58.958Z,98151.72
2023-04-29T15:35:25.905Z,98158.81
2023-04-29T15:37:52.520Z,98154.53
2023-04-29T15:40:20.173Z,98151.91
2023-04-29T15:42:46.961Z,98147.00
2023-04-29T15:45:13.794Z,98152.13
2023-04-29T15:47:40.433Z,98147.19
2023-04-29T15:50:08.036Z,98145.03
2023-04-29T15:52:34.722Z,98140.81
2023-04-29T15:55:01.341Z,98135.78
2023-04-29T15:57:27.951Z,98135.03
2023-04-29T15:59:54.817Z,98125.66
2023-04-29T16:02:22.173Z,98129.34
2023-04-29T16:04:49.051Z,98131.00
2023-04-29T16:07:15.704Z,98128.28
2023-04-29T16:09:45.397Z,98131.75
2023-04-29T16:12:13.254Z,98136.03
2023-04-29T16:14:39.925Z,98136.03
2023-04-29T16:17:06.956Z,98139.91
2023-04-29T16:19:36.872Z,98139.78
2023-04-29T16:22:04.397Z,98141.56
2023-04-29T16:24:31.113Z,98133.47
2023-04-29T16:26:59.109Z,98134.28
2023-04-29T16:29:26.024Z,98134.59
2023-04-29T16:31:53.200Z,98137.97
2023-04-29T16:34:20.332Z,98134.69
2023-04-29T16:36:49.992Z,98139.06
2023-04-29T16:39:16.835Z,98136.72
2023-04-29T16:41:43.471Z,98132.72
2023-04-29T16:44:10.065Z,98140.03
2023-04-29T16:46:36.852Z,98140.94
2023-04-29T16:49:03.714Z,98139.53
2023-04-29T16:51:30.392Z,98136.31
2023-04-29T16:53:56.977Z,98142.66
2023-04-29T16:56:23.728Z,98137.72
2023-04-29T16:58:53.522Z,98142.28
2023-04-29T17:01:21.545Z,98140.06
2023-04-29T17:03:49.120Z,98148.06
2023-04-29T17:06:16.164Z,98145.63
2023-04-29T17:08:44.278Z,98148.34
2023-04-29T17:11:11.129Z,98146.38
2023-04-29T17:13:37.726Z,98154.41
2023-04-29T17:16:04.748Z,98155.50
2023-04-29T17:18:31.703Z,98148.81
2023-04-29T17:20:58.445Z,98160.25
2023-04-29T17:23:25.084Z,98162.41
2023-04-29T17:25:51.766Z,98154.78
2023-04-29T17:28:18.392Z,98163.53
2023-04-29T17:30:45.116Z,98165.38
2023-04-29T17:33:13.449Z,98166.16
2023-04-29T17:35:41.078Z,98169.09
2023-04-29T17:38:07.977Z,98173.75
2023-04-29T17:40:37.805Z,98167.22
2023-04-29T17:43:04.397Z,98171.78
2023-04-29T17:45:31.659Z,98171.31
2023-04-29T17:47:58.358Z,98173.91
2023-04-29T17:50:24.995Z,98175.00
2023-04-29T17:52:51.605Z,98175.34
2023-04-29T17:55:18.867Z,98176.44
2023-04-29T17:57:45.821Z,98174.19
2023-04-29T18:00:14.849Z,98179.41
2023-04-29T18:02:41.545Z,98181.44
2023-04-29T18:05:08.404Z,98182.53
2023-04-29T18:07:35.062Z,98188.88
2023-04-29T18:10:01.718Z,98194.97
2023-04-29T18:12:28.321Z,98195.06
2023-04-29T18:14:54.931Z,98194.16
2023-04-29T18:17:21.598Z,98193.22
2023-04-29T18:19:51.384Z,98192.38
2023-04-29T18:22:18.000Z,98192.38
2023-04-29T18:24:44.712Z,98197.69
2023-04-29T18:27:11.401Z,98196.00
2023-04-29T18:29:38.032Z,98188.59
2023-04-29T18:32:08.248Z,98198.63
2023-04-29T18:34:35.243Z,98202.56
2023-04-29T18:37:01.934Z,98209.53
2023-04-29T18:39:28.719Z,98206.44
2023-04-29T18:41:56.102Z,98218.72
2023-04-29T18:44:22.979Z,98223.09
2023-04-29T18:46:49.777Z,98224.75
2023-04-29T18:49:17.955Z,98235.34
2023-04-29T18:51:48.203Z,98243.09
2023-04-29T18:54:16.696Z,98241.47
2023-04-29T18:56:47.155Z,98244.94
2023-04-29T18:59:19.071Z,98249.38
2023-04-29T19:01:47.299Z,98251.25
2023-04-29T19:04:14.226Z,98255.69
2023-04-29T19:06:41.992Z,98256.59
2023-04-29T19:09:08.996Z,98261.00
2023-04-29T19:11:36.308Z,98254.94
2023-04-29T19:14:04.289Z,98252.41
2023-04-29T19:16:31.010Z,98254.34
2023-04-29T19:18:57.747Z,98248.53
2023-04-29T19:21:24.457Z,98248.72
2023-04-29T19:23:51.085Z,98247.34
2023-04-29T19:26:17.753Z,98251.06
2023-04-29T19:28:44.434Z,98260.88
2023-04-29T19:31:11.971Z,98261.94
2023-04-29T19:33:39.755Z,98264.72
2023-04-29T19:36:07.483Z,98259.75
2023-04-29T19:38:34.129Z,98262.75
2023-04-29T19:41:00.936Z,98268.88
2023-04-29T19:43:27.642Z,98265.25
2023-04-29T19:45:54.249Z,98261.88
2023-04-29T19:48:21.106Z,98270.56
2023-04-29T19:50:47.768Z,98271.66
2023-04-29T19:53:14.419Z,98267.25
2023-04-29T19:55:41.337Z,98268.13
2023-04-29T19:58:08.358Z,98271.03
2023-04-29T20:00:35.121Z,98276.00
2023-04-29T20:03:02.184Z,98276.16
2023-04-29T20:05:29.128Z,98275.41
2023-04-29T20:07:55.976Z,98277.28
2023-04-29T20:10:22.910Z,98274.75
2023-04-29T20:12:49.752Z,98278.38
2023-04-29T20:15:16.571Z,98281.78
2023-04-29T20:17:43.255Z,98281.63
2023-04-29T20:20:10.724Z,98278.41
2023-04-29T20:22:37.581Z,98286.47
2023-04-29T20:25:04.426Z,98283.19
2023-04-29T20:27:31.110Z,98285.78
2023-04-29T20:29:57.891Z,98287.94
2023-04-29T20:32:24.718Z,98280.22
2023-04-29T20:34:52.545Z,98285.56
2023-04-29T20:37:19.934Z,98278.81
2023-04-29T20:39:47.359Z,98279.13
2023-04-29T20:42:16.942Z,98280.97
2023-04-29T20:44:46.826Z,98286.16
2023-04-29T20:47:13.497Z,98285.63
2023-04-29T20:49:40.165Z,98286.75
2023-04-29T20:52:06.884Z,98287.53
2023-04-29T20:54:34.124Z,98287.00
2023-04-29T20:57:01.657Z,98289.66
2023-04-29T20:59:28.266Z,98298.88
2023-04-29T21:01:54.947Z,98295.03
2023-04-29T21:04:21.673Z,98297.53
2023-04-29T21:06:49.400Z,98299.28
2023-04-29T21:09:17.728Z,98298.69
2023-04-29T21:11:44.462Z,98302.19
2023-04-29T21:14:12.987Z,98301.56
2023-04-29T21:16:40.689Z,98302.63
2023-04-29T21:19:07.282Z,98301.81
2023-04-29T21:21:36.727Z,98295.75
2023-04-29T21:24:03.478Z,98295.84
2023-04-29T21:26:30.119Z,98294.97
2023-04-29T21:28:56.770Z,98305.22
2023-04-29T21:31:23.413Z,98295.69
2023-04-29T21:33:50.176Z,98298.34
2023-04-29T21:36:16.907Z,98298.50
2023-04-29T21:38:43.736Z,98296.59
2023-04-29T21:41:27.569Z,98293.00
2023-04-29T21:43:57.586Z,98298.28
2023-04-29T21:46:26.937Z,98298.97
2023-04-29T21:48:53.882Z,98295.75
2023-04-29T21:51:22.756Z,98303.72
2023-04-29T21:53:50.369Z,98301.34
2023-04-29T21:56:17.149Z,98304.00
2023-04-29T21:58:44.155Z,98297.81
2023-04-29T22:01:26.896Z,98303.84
2023-04-29T22:03:55.038Z,98301.41
2023-04-29T22:06:21.907Z,98300.91
2023-04-29T22:08:48.643Z,98298.50
2023-04-29T22:11:15.636Z,98307.19
2023-04-29T22:13:42.375Z,98301.09
2023-04-29T22:16:09.157Z,98302.69
2023-04-29T22:18:35.842Z,98305.38
2023-04-29T22:21:02.502Z,98303.72
2023-04-29T22:23:29.115Z,98305.69
2023-04-29T22:25:55.883Z,98305.44
2023-04-29T22:28:22.525Z,98300.31
2023-04-29T22:30:49.262Z,98305.81
2023-04-29T22:33:15.947Z,98307.09
2023-04-29T22:35:42.635Z,98300.72
2023-04-29T22:38:09.876Z,98308.91
2023-04-29T22:40:37.248Z,98300.88
2023-04-29T22:43:04.109Z,98302.59
2023-04-29T22:45:31.852Z,98307.16
2023-04-29T22:47:58.504Z,98298.97
2023-04-29T22:50:25.142Z,98302.94
2023-04-29T22:52:51.796Z,98304.66
2023-04-29T22:55:18.453Z,98313.06
2023-04-29T22:57:45.028Z,98313.97
2023-04-29T23:00:12.966Z,98309.47
2023-04-29T23:02:40.205Z,98312.16
2023-04-29T23:05:07.752Z,98308.78
2023-04-29T23:07:34.437Z,98313.97
2023-04-29T23:10:01.033Z,98312.50
2023-04-29T23:12:27.703Z,98312.28
2023-04-29T23:14:54.404Z,98311.50
2023-04-29T23:17:21.026Z,98319.16
2023-04-29T23:19:47.631Z,98319.09
2023-04-29T23:22:14.408Z,98313.00
2023-04-29T23:24:41.040Z,98314.59
2023-04-29T23:27:07.677Z,98310.19
2023-04-29T23:29:34.398Z,98303.38
2023-04-29T23:32:01.626Z,98301.53
2023-04-29T23:34:28.329Z,98299.84
2023-04-29T23:36:54.997Z,98304.13
2023-04-29T23:39:21.612Z,98300.78
2023-04-29T23:41:48.322Z,98303.50
2023-04-29T23:44:14.986Z,98308.91
2023-04-29T23:46:41.814Z,98311.75
2023-04-29T23:49:08.991Z,98318.75
2023-04-29T23:51:35.604Z,98318.03
2023-04-29T23:54:04.645Z,98308.81
2023-04-29T23:56:32.967Z,98315.66
2023-04-29T23:58:59.840Z,98308.72
